sensor_id;sensor_type;location;lat;lon;timestamp;temperature;humidity
18177;DHT22;9213;50.858;3.964;2023-02-15T00:01:46;9.40;54.80
18177;DHT22;9213;50.858;3.964;2023-02-15T00:04:15;9.30;54.90
18177;DHT22;9213;50.858;3.964;2023-02-15T00:06:42;9.30;55.00
18177;DHT22;9213;50.858;3.964;2023-02-15T00:09:10;9.30;55.00
18177;DHT22;9213;50.858;3.964;2023-02-15T00:11:37;9.20;54.90
18177;DHT22;9213;50.858;3.964;2023-02-15T00:14:10;9.20;55.00
18177;DHT22;9213;50.858;3.964;2023-02-15T00:16:38;9.20;55.20
18177;DHT22;9213;50.858;3.964;2023-02-15T00:19:06;9.20;55.20
18177;DHT22;9213;50.858;3.964;2023-02-15T00:21:35;9.10;55.20
18177;DHT22;9213;50.858;3.964;2023-02-15T00:24:03;9.10;55.20
18177;DHT22;9213;50.858;3.964;2023-02-15T00:26:31;9.00;55.00
18177;DHT22;9213;50.858;3.964;2023-02-15T00:28:58;9.00;55.00
18177;DHT22;9213;50.858;3.964;2023-02-15T00:31:26;9.00;55.10
18177;DHT22;9213;50.858;3.964;2023-02-15T00:33:53;8.90;55.10
18177;DHT22;9213;50.858;3.964;2023-02-15T00:36:21;8.90;55.20
18177;DHT22;9213;50.858;3.964;2023-02-15T00:38:48;8.90;55.50
18177;DHT22;9213;50.858;3.964;2023-02-15T00:41:15;8.80;55.50
18177;DHT22;9213;50.858;3.964;2023-02-15T00:43:42;8.80;55.50
18177;DHT22;9213;50.858;3.964;2023-02-15T00:46:09;8.80;55.60
18177;DHT22;9213;50.858;3.964;2023-02-15T00:48:36;8.80;55.70
18177;DHT22;9213;50.858;3.964;2023-02-15T00:51:03;8.80;55.70
18177;DHT22;9213;50.858;3.964;2023-02-15T00:53:31;8.70;55.90
18177;DHT22;9213;50.858;3.964;2023-02-15T00:55:58;8.80;56.00
18177;DHT22;9213;50.858;3.964;2023-02-15T00:58:25;8.70;56.10
18177;DHT22;9213;50.858;3.964;2023-02-15T01:00:52;8.70;56.10
18177;DHT22;9213;50.858;3.964;2023-02-15T01:03:21;8.70;56.20
18177;DHT22;9213;50.858;3.964;2023-02-15T01:05:48;8.70;56.30
18177;DHT22;9213;50.858;3.964;2023-02-15T01:08:16;8.70;56.30
18177;DHT22;9213;50.858;3.964;2023-02-15T01:10:44;8.70;56.20
18177;DHT22;9213;50.858;3.964;2023-02-15T01:13:13;8.70;56.30
18177;DHT22;9213;50.858;3.964;2023-02-15T01:15:41;8.60;56.20
18177;DHT22;9213;50.858;3.964;2023-02-15T01:18:08;8.60;56.20
18177;DHT22;9213;50.858;3.964;2023-02-15T01:20:37;8.60;56.30
18177;DHT22;9213;50.858;3.964;2023-02-15T01:23:07;8.60;56.30
18177;DHT22;9213;50.858;3.964;2023-02-15T01:25:35;8.60;56.30
18177;DHT22;9213;50.858;3.964;2023-02-15T01:28:04;8.50;56.40
18177;DHT22;9213;50.858;3.964;2023-02-15T01:30:31;8.50;56.60
18177;DHT22;9213;50.858;3.964;2023-02-15T01:32:58;8.50;56.70
18177;DHT22;9213;50.858;3.964;2023-02-15T01:35:26;8.50;56.70
18177;DHT22;9213;50.858;3.964;2023-02-15T01:37:54;8.50;56.80
18177;DHT22;9213;50.858;3.964;2023-02-15T01:40:21;8.50;56.80
18177;DHT22;9213;50.858;3.964;2023-02-15T01:42:50;8.40;56.70
18177;DHT22;9213;50.858;3.964;2023-02-15T01:45:25;8.40;56.70
18177;DHT22;9213;50.858;3.964;2023-02-15T01:47:56;8.40;56.70
18177;DHT22;9213;50.858;3.964;2023-02-15T01:50:29;8.40;56.60
18177;DHT22;9213;50.858;3.964;2023-02-15T01:53:01;8.30;56.70
18177;DHT22;9213;50.858;3.964;2023-02-15T01:55:34;8.30;56.70
18177;DHT22;9213;50.858;3.964;2023-02-15T01:58:03;8.30;56.80
18177;DHT22;9213;50.858;3.964;2023-02-15T02:00:32;8.30;56.80
18177;DHT22;9213;50.858;3.964;2023-02-15T02:03:00;8.20;56.70
18177;DHT22;9213;50.858;3.964;2023-02-15T02:05:28;8.20;56.80
18177;DHT22;9213;50.858;3.964;2023-02-15T02:07:58;8.20;56.90
18177;DHT22;9213;50.858;3.964;2023-02-15T02:10:25;8.20;57.00
18177;DHT22;9213;50.858;3.964;2023-02-15T02:12:55;8.20;57.10
18177;DHT22;9213;50.858;3.964;2023-02-15T02:15:27;8.20;57.20
18177;DHT22;9213;50.858;3.964;2023-02-15T02:18:04;8.20;57.10
18177;DHT22;9213;50.858;3.964;2023-02-15T02:20:59;8.20;57.10
18177;DHT22;9213;50.858;3.964;2023-02-15T02:23:42;8.10;57.10
18177;DHT22;9213;50.858;3.964;2023-02-15T02:35:31;8.00;57.00
18177;DHT22;9213;50.858;3.964;2023-02-15T02:38:03;7.90;57.00
18177;DHT22;9213;50.858;3.964;2023-02-15T02:40:43;7.90;57.00
18177;DHT22;9213;50.858;3.964;2023-02-15T02:43:19;7.80;56.90
18177;DHT22;9213;50.858;3.964;2023-02-15T02:45:52;7.80;57.00
18177;DHT22;9213;50.858;3.964;2023-02-15T02:48:23;7.80;57.10
18177;DHT22;9213;50.858;3.964;2023-02-15T02:50:50;7.80;57.10
18177;DHT22;9213;50.858;3.964;2023-02-15T02:53:17;7.70;57.00
18177;DHT22;9213;50.858;3.964;2023-02-15T02:55:47;7.70;57.10
18177;DHT22;9213;50.858;3.964;2023-02-15T02:58:19;7.70;57.00
18177;DHT22;9213;50.858;3.964;2023-02-15T03:00:50;7.70;57.00
18177;DHT22;9213;50.858;3.964;2023-02-15T03:03:23;7.60;56.90
18177;DHT22;9213;50.858;3.964;2023-02-15T03:05:54;7.60;57.00
18177;DHT22;9213;50.858;3.964;2023-02-15T03:08:24;7.60;57.10
18177;DHT22;9213;50.858;3.964;2023-02-15T03:10:56;7.50;57.30
18177;DHT22;9213;50.858;3.964;2023-02-15T03:13:25;7.60;57.40
18177;DHT22;9213;50.858;3.964;2023-02-15T03:15:52;7.60;57.40
18177;DHT22;9213;50.858;3.964;2023-02-15T03:18:43;7.50;57.40
18177;DHT22;9213;50.858;3.964;2023-02-15T03:21:19;7.50;57.30
18177;DHT22;9213;50.858;3.964;2023-02-15T03:23:51;7.50;57.40
18177;DHT22;9213;50.858;3.964;2023-02-15T03:26:20;7.50;57.50
18177;DHT22;9213;50.858;3.964;2023-02-15T03:28:50;7.40;57.40
18177;DHT22;9213;50.858;3.964;2023-02-15T03:31:18;7.40;57.40
18177;DHT22;9213;50.858;3.964;2023-02-15T03:33:54;7.40;57.40
18177;DHT22;9213;50.858;3.964;2023-02-15T03:36:26;7.40;57.50
18177;DHT22;9213;50.858;3.964;2023-02-15T03:39:07;7.30;57.50
18177;DHT22;9213;50.858;3.964;2023-02-15T03:41:41;7.30;57.60
18177;DHT22;9213;50.858;3.964;2023-02-15T03:44:15;7.30;57.60
18177;DHT22;9213;50.858;3.964;2023-02-15T03:46:45;7.30;57.60
18177;DHT22;9213;50.858;3.964;2023-02-15T03:49:20;7.30;57.80
18177;DHT22;9213;50.858;3.964;2023-02-15T03:51:51;7.30;57.80
18177;DHT22;9213;50.858;3.964;2023-02-15T03:54:24;7.20;57.60
18177;DHT22;9213;50.858;3.964;2023-02-15T03:57:14;7.20;57.60
18177;DHT22;9213;50.858;3.964;2023-02-15T04:00:00;7.20;57.50
18177;DHT22;9213;50.858;3.964;2023-02-15T04:02:55;7.20;57.50
18177;DHT22;9213;50.858;3.964;2023-02-15T04:05:25;7.20;57.70
18177;DHT22;9213;50.858;3.964;2023-02-15T04:07:52;7.10;57.90
18177;DHT22;9213;50.858;3.964;2023-02-15T04:10:19;7.10;58.00
18177;DHT22;9213;50.858;3.964;2023-02-15T04:13:15;7.10;58.00
18177;DHT22;9213;50.858;3.964;2023-02-15T04:15:42;7.20;57.90
18177;DHT22;9213;50.858;3.964;2023-02-15T04:18:26;7.10;58.10
18177;DHT22;9213;50.858;3.964;2023-02-15T04:21:12;7.10;58.00
18177;DHT22;9213;50.858;3.964;2023-02-15T04:23:56;7.10;58.10
18177;DHT22;9213;50.858;3.964;2023-02-15T04:26:41;7.10;58.10
18177;DHT22;9213;50.858;3.964;2023-02-15T04:29:07;7.10;58.20
18177;DHT22;9213;50.858;3.964;2023-02-15T04:31:34;7.10;58.40
18177;DHT22;9213;50.858;3.964;2023-02-15T04:34:01;7.10;58.50
18177;DHT22;9213;50.858;3.964;2023-02-15T04:36:30;7.10;58.50
18177;DHT22;9213;50.858;3.964;2023-02-15T04:38:56;7.10;58.50
18177;DHT22;9213;50.858;3.964;2023-02-15T04:41:23;7.10;58.40
18177;DHT22;9213;50.858;3.964;2023-02-15T04:43:50;7.10;58.40
18177;DHT22;9213;50.858;3.964;2023-02-15T04:46:17;7.10;58.40
18177;DHT22;9213;50.858;3.964;2023-02-15T04:48:44;7.10;58.30
18177;DHT22;9213;50.858;3.964;2023-02-15T04:51:11;7.10;58.30
18177;DHT22;9213;50.858;3.964;2023-02-15T04:53:39;7.10;58.40
18177;DHT22;9213;50.858;3.964;2023-02-15T04:56:06;7.10;58.40
18177;DHT22;9213;50.858;3.964;2023-02-15T04:58:33;7.10;58.30
18177;DHT22;9213;50.858;3.964;2023-02-15T05:01:02;7.00;58.10
18177;DHT22;9213;50.858;3.964;2023-02-15T05:03:29;7.00;58.10
18177;DHT22;9213;50.858;3.964;2023-02-15T05:05:56;7.00;58.10
18177;DHT22;9213;50.858;3.964;2023-02-15T05:08:23;6.90;58.10
18177;DHT22;9213;50.858;3.964;2023-02-15T05:10:51;6.90;58.10
18177;DHT22;9213;50.858;3.964;2023-02-15T05:13:18;6.90;58.10
18177;DHT22;9213;50.858;3.964;2023-02-15T05:15:47;6.90;58.10
18177;DHT22;9213;50.858;3.964;2023-02-15T05:18:15;6.90;58.10
18177;DHT22;9213;50.858;3.964;2023-02-15T05:20:42;6.80;58.10
18177;DHT22;9213;50.858;3.964;2023-02-15T05:23:09;6.80;58.10
18177;DHT22;9213;50.858;3.964;2023-02-15T05:25:36;6.80;58.10
18177;DHT22;9213;50.858;3.964;2023-02-15T05:28:23;6.80;58.10
18177;DHT22;9213;50.858;3.964;2023-02-15T05:30:51;6.80;58.10
18177;DHT22;9213;50.858;3.964;2023-02-15T05:33:20;6.70;58.10
18177;DHT22;9213;50.858;3.964;2023-02-15T05:35:46;6.70;58.20
18177;DHT22;9213;50.858;3.964;2023-02-15T05:38:13;6.60;58.10
18177;DHT22;9213;50.858;3.964;2023-02-15T05:40:40;6.60;58.10
18177;DHT22;9213;50.858;3.964;2023-02-15T05:43:07;6.60;58.10
18177;DHT22;9213;50.858;3.964;2023-02-15T05:45:35;6.60;58.20
18177;DHT22;9213;50.858;3.964;2023-02-15T05:48:02;6.60;58.20
18177;DHT22;9213;50.858;3.964;2023-02-15T05:50:29;6.60;58.20
18177;DHT22;9213;50.858;3.964;2023-02-15T05:52:56;6.60;58.30
18177;DHT22;9213;50.858;3.964;2023-02-15T05:55:23;6.60;58.30
18177;DHT22;9213;50.858;3.964;2023-02-15T05:57:50;6.60;58.20
18177;DHT22;9213;50.858;3.964;2023-02-15T06:00:17;6.60;58.30
18177;DHT22;9213;50.858;3.964;2023-02-15T06:02:46;6.50;58.30
18177;DHT22;9213;50.858;3.964;2023-02-15T06:05:13;6.50;58.30
18177;DHT22;9213;50.858;3.964;2023-02-15T06:07:42;6.50;58.40
18177;DHT22;9213;50.858;3.964;2023-02-15T06:10:10;6.50;58.40
18177;DHT22;9213;50.858;3.964;2023-02-15T06:12:37;6.50;58.40
18177;DHT22;9213;50.858;3.964;2023-02-15T06:15:04;6.50;58.30
18177;DHT22;9213;50.858;3.964;2023-02-15T06:17:32;6.50;58.30
18177;DHT22;9213;50.858;3.964;2023-02-15T06:20:01;6.50;58.40
18177;DHT22;9213;50.858;3.964;2023-02-15T06:22:28;6.40;58.30
18177;DHT22;9213;50.858;3.964;2023-02-15T06:24:55;6.40;58.30
18177;DHT22;9213;50.858;3.964;2023-02-15T06:27:22;6.40;58.30
18177;DHT22;9213;50.858;3.964;2023-02-15T06:29:48;6.40;58.30
18177;DHT22;9213;50.858;3.964;2023-02-15T06:32:15;6.40;58.70
18177;DHT22;9213;50.858;3.964;2023-02-15T06:34:42;6.40;58.30
18177;DHT22;9213;50.858;3.964;2023-02-15T06:37:10;6.40;58.30
18177;DHT22;9213;50.858;3.964;2023-02-15T06:39:37;6.30;58.30
18177;DHT22;9213;50.858;3.964;2023-02-15T06:42:04;6.30;58.30
18177;DHT22;9213;50.858;3.964;2023-02-15T06:44:31;6.30;58.30
18177;DHT22;9213;50.858;3.964;2023-02-15T06:46:58;6.30;58.30
18177;DHT22;9213;50.858;3.964;2023-02-15T06:49:25;6.30;58.40
18177;DHT22;9213;50.858;3.964;2023-02-15T06:51:52;6.30;58.40
18177;DHT22;9213;50.858;3.964;2023-02-15T06:54:20;6.30;58.40
18177;DHT22;9213;50.858;3.964;2023-02-15T06:56:47;6.30;58.50
18177;DHT22;9213;50.858;3.964;2023-02-15T06:59:14;6.30;58.40
18177;DHT22;9213;50.858;3.964;2023-02-15T07:01:41;6.30;58.30
18177;DHT22;9213;50.858;3.964;2023-02-15T07:04:08;6.30;58.20
18177;DHT22;9213;50.858;3.964;2023-02-15T07:06:34;6.30;58.30
18177;DHT22;9213;50.858;3.964;2023-02-15T07:09:02;6.30;58.30
18177;DHT22;9213;50.858;3.964;2023-02-15T07:11:31;6.30;58.40
18177;DHT22;9213;50.858;3.964;2023-02-15T07:14:15;6.40;58.40
18177;DHT22;9213;50.858;3.964;2023-02-15T07:16:42;6.40;58.40
18177;DHT22;9213;50.858;3.964;2023-02-15T07:19:09;6.40;58.50
18177;DHT22;9213;50.858;3.964;2023-02-15T07:21:36;6.50;58.70
18177;DHT22;9213;50.858;3.964;2023-02-15T07:24:03;6.50;58.70
18177;DHT22;9213;50.858;3.964;2023-02-15T07:26:33;6.60;58.60
18177;DHT22;9213;50.858;3.964;2023-02-15T07:29:00;6.70;58.60
18177;DHT22;9213;50.858;3.964;2023-02-15T07:31:27;6.80;58.40
18177;DHT22;9213;50.858;3.964;2023-02-15T07:33:53;6.80;58.30
18177;DHT22;9213;50.858;3.964;2023-02-15T07:36:20;6.90;58.30
18177;DHT22;9213;50.858;3.964;2023-02-15T07:38:47;6.90;58.20
18177;DHT22;9213;50.858;3.964;2023-02-15T07:41:14;7.00;58.00
18177;DHT22;9213;50.858;3.964;2023-02-15T07:43:44;7.00;57.90
18177;DHT22;9213;50.858;3.964;2023-02-15T07:46:13;7.00;57.90
18177;DHT22;9213;50.858;3.964;2023-02-15T07:48:41;7.10;57.90
18177;DHT22;9213;50.858;3.964;2023-02-15T07:51:10;7.10;57.80
18177;DHT22;9213;50.858;3.964;2023-02-15T07:53:38;7.20;57.80
18177;DHT22;9213;50.858;3.964;2023-02-15T07:56:06;7.20;57.70
18177;DHT22;9213;50.858;3.964;2023-02-15T07:58:34;7.30;57.70
18177;DHT22;9213;50.858;3.964;2023-02-15T08:01:23;7.30;57.60
18177;DHT22;9213;50.858;3.964;2023-02-15T08:03:51;7.40;57.60
18177;DHT22;9213;50.858;3.964;2023-02-15T08:06:18;7.40;57.50
18177;DHT22;9213;50.858;3.964;2023-02-15T08:08:45;7.50;57.50
18177;DHT22;9213;50.858;3.964;2023-02-15T08:11:17;7.60;57.50
18177;DHT22;9213;50.858;3.964;2023-02-15T08:14:01;7.70;57.50
18177;DHT22;9213;50.858;3.964;2023-02-15T08:16:33;7.80;57.30
18177;DHT22;9213;50.858;3.964;2023-02-15T08:19:03;7.90;57.40
18177;DHT22;9213;50.858;3.964;2023-02-15T08:21:31;8.00;57.30
18177;DHT22;9213;50.858;3.964;2023-02-15T08:23:59;8.20;57.10
18177;DHT22;9213;50.858;3.964;2023-02-15T08:26:27;8.50;57.20
18177;DHT22;9213;50.858;3.964;2023-02-15T08:28:55;8.70;56.80
18177;DHT22;9213;50.858;3.964;2023-02-15T08:31:23;9.00;56.30
18177;DHT22;9213;50.858;3.964;2023-02-15T08:33:53;9.30;55.80
18177;DHT22;9213;50.858;3.964;2023-02-15T08:36:21;9.50;55.20
18177;DHT22;9213;50.858;3.964;2023-02-15T08:38:48;9.70;54.70
18177;DHT22;9213;50.858;3.964;2023-02-15T08:41:17;9.90;54.40
18177;DHT22;9213;50.858;3.964;2023-02-15T08:43:46;10.00;53.90
18177;DHT22;9213;50.858;3.964;2023-02-15T08:46:15;10.20;53.60
18177;DHT22;9213;50.858;3.964;2023-02-15T08:48:43;10.40;53.30
18177;DHT22;9213;50.858;3.964;2023-02-15T08:51:13;10.60;53.10
18177;DHT22;9213;50.858;3.964;2023-02-15T08:53:41;10.70;52.70
18177;DHT22;9213;50.858;3.964;2023-02-15T08:56:08;10.90;52.30
18177;DHT22;9213;50.858;3.964;2023-02-15T08:58:36;11.00;52.00
18177;DHT22;9213;50.858;3.964;2023-02-15T09:01:09;11.20;51.80
18177;DHT22;9213;50.858;3.964;2023-02-15T09:03:36;11.40;51.50
18177;DHT22;9213;50.858;3.964;2023-02-15T09:06:03;11.60;51.00
18177;DHT22;9213;50.858;3.964;2023-02-15T09:08:32;11.70;50.70
18177;DHT22;9213;50.858;3.964;2023-02-15T09:11:10;11.90;50.20
18177;DHT22;9213;50.858;3.964;2023-02-15T09:13:37;12.10;50.20
18177;DHT22;9213;50.858;3.964;2023-02-15T09:16:06;12.10;49.80
18177;DHT22;9213;50.858;3.964;2023-02-15T09:18:35;12.30;49.80
18177;DHT22;9213;50.858;3.964;2023-02-15T09:21:09;12.40;49.50
18177;DHT22;9213;50.858;3.964;2023-02-15T09:23:40;12.60;49.20
18177;DHT22;9213;50.858;3.964;2023-02-15T09:26:10;12.70;48.90
18177;DHT22;9213;50.858;3.964;2023-02-15T09:28:38;12.80;48.50
18177;DHT22;9213;50.858;3.964;2023-02-15T09:31:13;12.90;48.30
18177;DHT22;9213;50.858;3.964;2023-02-15T09:33:41;13.00;48.20
18177;DHT22;9213;50.858;3.964;2023-02-15T09:36:16;13.10;48.10
18177;DHT22;9213;50.858;3.964;2023-02-15T09:38:45;13.40;47.90
18177;DHT22;9213;50.858;3.964;2023-02-15T09:41:30;13.60;47.30
18177;DHT22;9213;50.858;3.964;2023-02-15T09:44:08;13.90;47.20
18177;DHT22;9213;50.858;3.964;2023-02-15T09:46:50;14.10;46.40
18177;DHT22;9213;50.858;3.964;2023-02-15T09:49:30;14.30;45.70
18177;DHT22;9213;50.858;3.964;2023-02-15T09:55:11;14.70;45.30
18177;DHT22;9213;50.858;3.964;2023-02-15T09:57:47;14.90;45.10
18177;DHT22;9213;50.858;3.964;2023-02-15T10:00:24;15.00;44.20
18177;DHT22;9213;50.858;3.964;2023-02-15T10:03:15;15.10;43.90
18177;DHT22;9213;50.858;3.964;2023-02-15T10:05:58;15.30;44.50
18177;DHT22;9213;50.858;3.964;2023-02-15T10:08:52;15.40;43.60
18177;DHT22;9213;50.858;3.964;2023-02-15T10:11:31;15.60;43.30
18177;DHT22;9213;50.858;3.964;2023-02-15T10:14:25;15.80;42.70
18177;DHT22;9213;50.858;3.964;2023-02-15T10:17:12;16.00;42.80
18177;DHT22;9213;50.858;3.964;2023-02-15T10:19:49;16.10;41.90
18177;DHT22;9213;50.858;3.964;2023-02-15T10:22:26;16.10;41.70
18177;DHT22;9213;50.858;3.964;2023-02-15T10:25:07;16.20;41.30
18177;DHT22;9213;50.858;3.964;2023-02-15T10:27:43;16.20;41.10
18177;DHT22;9213;50.858;3.964;2023-02-15T10:30:12;16.30;40.90
18177;DHT22;9213;50.858;3.964;2023-02-15T10:32:47;16.30;41.00
18177;DHT22;9213;50.858;3.964;2023-02-15T10:35:24;16.40;41.10
18177;DHT22;9213;50.858;3.964;2023-02-15T10:38:14;16.60;40.60
18177;DHT22;9213;50.858;3.964;2023-02-15T10:40:54;16.70;40.50
18177;DHT22;9213;50.858;3.964;2023-02-15T10:43:44;16.80;40.20
18177;DHT22;9213;50.858;3.964;2023-02-15T10:46:25;16.80;39.90
18177;DHT22;9213;50.858;3.964;2023-02-15T10:49:06;16.90;40.30
18177;DHT22;9213;50.858;3.964;2023-02-15T10:51:47;17.00;39.30
18177;DHT22;9213;50.858;3.964;2023-02-15T10:54:27;16.90;39.20
18177;DHT22;9213;50.858;3.964;2023-02-15T10:57:04;16.80;39.10
18177;DHT22;9213;50.858;3.964;2023-02-15T10:59:59;16.80;39.20
18177;DHT22;9213;50.858;3.964;2023-02-15T11:02:54;16.80;39.40
18177;DHT22;9213;50.858;3.964;2023-02-15T11:05:38;16.70;39.40
18177;DHT22;9213;50.858;3.964;2023-02-15T11:08:10;16.60;39.50
18177;DHT22;9213;50.858;3.964;2023-02-15T11:10:40;16.50;39.20
18177;DHT22;9213;50.858;3.964;2023-02-15T11:13:12;16.50;39.30
18177;DHT22;9213;50.858;3.964;2023-02-15T11:15:44;16.40;39.50
18177;DHT22;9213;50.858;3.964;2023-02-15T11:18:16;16.50;39.90
18177;DHT22;9213;50.858;3.964;2023-02-15T11:20:52;16.50;39.70
18177;DHT22;9213;50.858;3.964;2023-02-15T11:23:21;16.60;39.40
18177;DHT22;9213;50.858;3.964;2023-02-15T11:25:56;16.70;39.50
18177;DHT22;9213;50.858;3.964;2023-02-15T11:28:27;16.80;39.20
18177;DHT22;9213;50.858;3.964;2023-02-15T11:31:02;16.90;39.30
18177;DHT22;9213;50.858;3.964;2023-02-15T11:33:33;17.00;39.20
18177;DHT22;9213;50.858;3.964;2023-02-15T11:36:05;17.30;39.50
18177;DHT22;9213;50.858;3.964;2023-02-15T11:38:33;17.50;38.90
18177;DHT22;9213;50.858;3.964;2023-02-15T11:41:02;17.70;38.70
18177;DHT22;9213;50.858;3.964;2023-02-15T11:43:35;17.80;38.20
18177;DHT22;9213;50.858;3.964;2023-02-15T11:46:05;17.90;37.90
18177;DHT22;9213;50.858;3.964;2023-02-15T11:48:32;17.90;37.80
18177;DHT22;9213;50.858;3.964;2023-02-15T11:51:01;18.00;37.70
18177;DHT22;9213;50.858;3.964;2023-02-15T11:53:32;18.00;37.80
18177;DHT22;9213;50.858;3.964;2023-02-15T11:55:59;18.00;37.90
18177;DHT22;9213;50.858;3.964;2023-02-15T11:58:33;17.90;37.30
18177;DHT22;9213;50.858;3.964;2023-02-15T12:01:10;17.90;37.50
18177;DHT22;9213;50.858;3.964;2023-02-15T12:03:49;17.90;37.70
18177;DHT22;9213;50.858;3.964;2023-02-15T12:06:24;18.00;38.00
18177;DHT22;9213;50.858;3.964;2023-02-15T12:09:03;18.00;37.90
18177;DHT22;9213;50.858;3.964;2023-02-15T12:11:35;18.10;38.00
18177;DHT22;9213;50.858;3.964;2023-02-15T12:14:04;18.10;37.60
18177;DHT22;9213;50.858;3.964;2023-02-15T12:16:41;18.10;37.70
18177;DHT22;9213;50.858;3.964;2023-02-15T12:19:20;18.20;37.90
18177;DHT22;9213;50.858;3.964;2023-02-15T12:21:51;18.20;37.60
18177;DHT22;9213;50.858;3.964;2023-02-15T12:24:21;18.40;37.70
18177;DHT22;9213;50.858;3.964;2023-02-15T12:26:58;18.50;37.60
18177;DHT22;9213;50.858;3.964;2023-02-15T12:29:27;18.50;37.30
18177;DHT22;9213;50.858;3.964;2023-02-15T12:31:57;18.60;37.30
18177;DHT22;9213;50.858;3.964;2023-02-15T12:34:28;18.70;37.30
18177;DHT22;9213;50.858;3.964;2023-02-15T12:36:57;18.80;37.00
18177;DHT22;9213;50.858;3.964;2023-02-15T12:39:28;18.90;37.00
18177;DHT22;9213;50.858;3.964;2023-02-15T12:42:04;19.10;37.00
18177;DHT22;9213;50.858;3.964;2023-02-15T12:44:33;19.20;36.80
18177;DHT22;9213;50.858;3.964;2023-02-15T12:47:04;19.30;36.90
18177;DHT22;9213;50.858;3.964;2023-02-15T12:49:32;19.50;36.40
18177;DHT22;9213;50.858;3.964;2023-02-15T12:52:00;19.50;36.10
18177;DHT22;9213;50.858;3.964;2023-02-15T12:54:35;19.50;36.00
18177;DHT22;9213;50.858;3.964;2023-02-15T12:57:20;19.60;36.00
18177;DHT22;9213;50.858;3.964;2023-02-15T12:59:49;19.60;36.20
18177;DHT22;9213;50.858;3.964;2023-02-15T13:02:22;19.50;36.60
18177;DHT22;9213;50.858;3.964;2023-02-15T13:04:50;19.50;36.30
18177;DHT22;9213;50.858;3.964;2023-02-15T13:07:18;19.50;36.40
18177;DHT22;9213;50.858;3.964;2023-02-15T13:09:46;19.60;36.20
18177;DHT22;9213;50.858;3.964;2023-02-15T13:12:19;19.60;36.10
18177;DHT22;9213;50.858;3.964;2023-02-15T13:14:48;19.70;36.40
18177;DHT22;9213;50.858;3.964;2023-02-15T13:17:21;19.80;35.90
18177;DHT22;9213;50.858;3.964;2023-02-15T13:19:52;20.00;36.00
18177;DHT22;9213;50.858;3.964;2023-02-15T13:22:22;20.20;35.70
18177;DHT22;9213;50.858;3.964;2023-02-15T13:24:54;20.30;35.40
18177;DHT22;9213;50.858;3.964;2023-02-15T13:27:26;20.40;35.30
18177;DHT22;9213;50.858;3.964;2023-02-15T13:29:58;20.50;35.10
18177;DHT22;9213;50.858;3.964;2023-02-15T13:32:30;20.60;34.80
18177;DHT22;9213;50.858;3.964;2023-02-15T13:34:59;20.60;34.50
18177;DHT22;9213;50.858;3.964;2023-02-15T13:37:55;20.60;34.40
18177;DHT22;9213;50.858;3.964;2023-02-15T13:40:29;20.80;34.60
18177;DHT22;9213;50.858;3.964;2023-02-15T13:43:02;20.60;34.60
18177;DHT22;9213;50.858;3.964;2023-02-15T13:45:38;20.60;34.60
18177;DHT22;9213;50.858;3.964;2023-02-15T13:48:15;20.60;34.60
18177;DHT22;9213;50.858;3.964;2023-02-15T13:50:56;20.50;34.70
18177;DHT22;9213;50.858;3.964;2023-02-15T13:56:30;20.50;35.00
18177;DHT22;9213;50.858;3.964;2023-02-15T13:59:27;20.40;35.00
18177;DHT22;9213;50.858;3.964;2023-02-15T14:01:57;20.40;35.30
18177;DHT22;9213;50.858;3.964;2023-02-15T14:04:54;20.40;35.20
18177;DHT22;9213;50.858;3.964;2023-02-15T14:07:50;20.50;35.60
18177;DHT22;9213;50.858;3.964;2023-02-15T14:10:34;20.40;35.40
18177;DHT22;9213;50.858;3.964;2023-02-15T14:13:33;20.50;35.30
18177;DHT22;9213;50.858;3.964;2023-02-15T14:16:10;20.50;35.40
18177;DHT22;9213;50.858;3.964;2023-02-15T14:18:43;20.40;35.10
18177;DHT22;9213;50.858;3.964;2023-02-15T14:21:16;20.40;35.10
18177;DHT22;9213;50.858;3.964;2023-02-15T14:23:55;20.40;35.00
18177;DHT22;9213;50.858;3.964;2023-02-15T14:26:34;20.30;35.20
18177;DHT22;9213;50.858;3.964;2023-02-15T14:29:15;20.30;35.30
18177;DHT22;9213;50.858;3.964;2023-02-15T14:31:45;20.20;35.10
18177;DHT22;9213;50.858;3.964;2023-02-15T14:34:19;20.20;35.00
18177;DHT22;9213;50.858;3.964;2023-02-15T14:36:50;20.20;35.30
18177;DHT22;9213;50.858;3.964;2023-02-15T14:39:26;20.10;35.40
18177;DHT22;9213;50.858;3.964;2023-02-15T14:42:18;20.10;35.30
18177;DHT22;9213;50.858;3.964;2023-02-15T14:44:52;20.10;35.50
18177;DHT22;9213;50.858;3.964;2023-02-15T14:47:26;20.00;35.40
18177;DHT22;9213;50.858;3.964;2023-02-15T14:49:55;20.00;35.30
18177;DHT22;9213;50.858;3.964;2023-02-15T14:52:24;20.00;35.50
18177;DHT22;9213;50.858;3.964;2023-02-15T14:55:00;20.00;35.60
18177;DHT22;9213;50.858;3.964;2023-02-15T14:57:32;20.00;35.60
18177;DHT22;9213;50.858;3.964;2023-02-15T15:00:00;19.90;35.60
18177;DHT22;9213;50.858;3.964;2023-02-15T15:02:43;19.80;35.70
18177;DHT22;9213;50.858;3.964;2023-02-15T15:05:17;19.90;35.90
18177;DHT22;9213;50.858;3.964;2023-02-15T15:07:48;19.80;36.00
18177;DHT22;9213;50.858;3.964;2023-02-15T15:10:38;19.70;35.70
18177;DHT22;9213;50.858;3.964;2023-02-15T15:13:37;19.70;35.90
18177;DHT22;9213;50.858;3.964;2023-02-15T15:16:28;19.70;36.00
18177;DHT22;9213;50.858;3.964;2023-02-15T15:18:56;19.60;36.00
18177;DHT22;9213;50.858;3.964;2023-02-15T15:21:51;19.50;36.00
18177;DHT22;9213;50.858;3.964;2023-02-15T15:24:47;19.40;35.90
18177;DHT22;9213;50.858;3.964;2023-02-15T15:27:40;19.30;36.20
18177;DHT22;9213;50.858;3.964;2023-02-15T15:42:49;18.80;36.80
18177;DHT22;9213;50.858;3.964;2023-02-15T15:48:31;18.60;36.90
18177;DHT22;9213;50.858;3.964;2023-02-15T15:51:02;18.40;37.20
18177;DHT22;9213;50.858;3.964;2023-02-15T15:53:33;18.20;37.30
18177;DHT22;9213;50.858;3.964;2023-02-15T15:56:08;18.10;37.50
18177;DHT22;9213;50.858;3.964;2023-02-15T15:58:45;18.00;37.70
18177;DHT22;9213;50.858;3.964;2023-02-15T16:01:13;18.00;37.90
18177;DHT22;9213;50.858;3.964;2023-02-15T16:03:49;17.90;38.10
18177;DHT22;9213;50.858;3.964;2023-02-15T16:06:27;17.80;38.10
18177;DHT22;9213;50.858;3.964;2023-02-15T16:08:54;17.80;38.40
18177;DHT22;9213;50.858;3.964;2023-02-15T16:11:24;17.70;38.50
18177;DHT22;9213;50.858;3.964;2023-02-15T16:13:52;17.60;38.60
18177;DHT22;9213;50.858;3.964;2023-02-15T16:16:21;17.50;38.70
18177;DHT22;9213;50.858;3.964;2023-02-15T16:18:49;17.50;38.80
18177;DHT22;9213;50.858;3.964;2023-02-15T16:21:19;17.40;38.80
18177;DHT22;9213;50.858;3.964;2023-02-15T16:23:59;17.30;39.00
18177;DHT22;9213;50.858;3.964;2023-02-15T16:29:30;17.20;39.10
18177;DHT22;9213;50.858;3.964;2023-02-15T16:32:02;17.10;39.20
18177;DHT22;9213;50.858;3.964;2023-02-15T16:34:29;17.00;39.40
18177;DHT22;9213;50.858;3.964;2023-02-15T16:37:14;16.90;39.50
18177;DHT22;9213;50.858;3.964;2023-02-15T16:39:43;16.80;39.70
18177;DHT22;9213;50.858;3.964;2023-02-15T16:42:12;16.70;40.00
18177;DHT22;9213;50.858;3.964;2023-02-15T16:44:41;16.50;40.10
18177;DHT22;9213;50.858;3.964;2023-02-15T16:47:15;16.40;40.30
18177;DHT22;9213;50.858;3.964;2023-02-15T16:49:46;16.30;40.70
18177;DHT22;9213;50.858;3.964;2023-02-15T16:52:18;16.20;40.80
18177;DHT22;9213;50.858;3.964;2023-02-15T16:54:50;16.10;40.90
18177;DHT22;9213;50.858;3.964;2023-02-15T16:57:23;16.00;41.00
18177;DHT22;9213;50.858;3.964;2023-02-15T16:59:52;16.00;41.30
18177;DHT22;9213;50.858;3.964;2023-02-15T17:02:23;15.90;41.50